createdAt,value
2022-12-01T00:01:31.272Z,11.80
2022-12-01T00:03:59.690Z,10.60
2022-12-01T00:06:28.416Z,10.70
2022-12-01T00:09:19.459Z,10.80
2022-12-01T00:11:48.890Z,10.20
2022-12-01T00:14:17.515Z,10.80
2022-12-01T00:16:46.090Z,10.30
2022-12-01T00:19:14.854Z,9.10
2022-12-01T00:21:43.393Z,11.80
2022-12-01T00:24:12.072Z,9.10
2022-12-01T00:26:40.802Z,10.70
2022-12-01T00:29:11.850Z,9.80
2022-12-01T00:31:40.642Z,10.10
2022-12-01T00:34:30.571Z,10.60
2022-12-01T00:37:06.378Z,9.80
2022-12-01T00:39:37.323Z,12.60
2022-12-01T00:42:15.123Z,10.10
2022-12-01T00:44:44.718Z,10.30
2022-12-01T00:47:13.544Z,12.40
2022-12-01T00:49:44.757Z,11.00
2022-12-01T00:52:13.824Z,10.70
2022-12-01T00:54:42.124Z,11.90
2022-12-01T00:57:12.546Z,12.00
2022-12-01T00:59:53.808Z,11.70
2022-12-01T01:02:22.472Z,12.30
2022-12-01T01:04:52.011Z,10.50
2022-12-01T01:07:22.200Z,11.90
2022-12-01T01:09:51.535Z,12.00
2022-12-01T01:12:20.662Z,11.40
2022-12-01T01:14:58.456Z,12.40
2022-12-01T01:17:27.795Z,10.80
2022-12-01T01:19:56.859Z,12.80
2022-12-01T01:22:26.003Z,10.50
2022-12-01T01:24:55.357Z,11.60
2022-12-01T01:27:24.547Z,11.90
2022-12-01T01:29:53.217Z,12.10
2022-12-01T01:32:22.451Z,12.90
2022-12-01T01:34:50.926Z,12.20
2022-12-01T01:37:19.104Z,12.10
2022-12-01T01:39:48.284Z,10.90
2022-12-01T01:42:20.296Z,10.80
2022-12-01T01:44:51.442Z,8.80
2022-12-01T01:47:22.441Z,12.40
2022-12-01T01:49:51.126Z,9.80
2022-12-01T01:52:19.625Z,12.50
2022-12-01T01:54:51.436Z,9.60
2022-12-01T01:57:25.284Z,13.00
2022-12-01T01:59:57.313Z,12.30
2022-12-01T02:02:26.065Z,12.00
2022-12-01T02:05:00.153Z,12.00
2022-12-01T02:07:29.018Z,13.00
2022-12-01T02:09:57.471Z,12.40
2022-12-01T02:12:48.751Z,12.90
2022-12-01T02:15:24.890Z,13.40
2022-12-01T02:18:01.748Z,14.90
2022-12-01T02:20:45.545Z,13.30
2022-12-01T02:23:31.963Z,13.70
2022-12-01T02:26:16.364Z,9.00
2022-12-01T02:29:01.835Z,10.40
2022-12-01T02:31:36.304Z,13.80
2022-12-01T02:34:12.817Z,14.60
2022-12-01T02:36:46.032Z,14.60
2022-12-01T02:39:18.953Z,14.20
2022-12-01T02:41:51.016Z,11.30
2022-12-01T02:44:30.127Z,15.30
2022-12-01T02:47:02.097Z,9.10
2022-12-01T02:49:34.903Z,12.70
2022-12-01T02:52:06.709Z,12.80
2022-12-01T02:54:36.317Z,14.80
2022-12-01T02:57:05.535Z,13.70
2022-12-01T02:59:33.964Z,11.20
2022-12-01T03:02:07.955Z,15.60
2022-12-01T03:07:17.348Z,12.00
2022-12-01T03:09:58.559Z,12.90
2022-12-01T03:12:29.902Z,14.50
2022-12-01T03:15:03.372Z,13.10
2022-12-01T03:17:38.352Z,11.80
2022-12-01T03:20:13.356Z,12.20
2022-12-01T03:22:48.524Z,10.60
2022-12-01T03:25:18.000Z,14.10
2022-12-01T03:28:19.243Z,10.80
2022-12-01T03:30:38.022Z,11.10
2022-12-01T03:33:09.577Z,14.70
2022-12-01T03:35:41.824Z,14.50
2022-12-01T03:38:14.448Z,12.10
2022-12-01T03:40:43.895Z,12.40
2022-12-01T03:43:15.654Z,11.70
2022-12-01T03:45:51.045Z,13.50
2022-12-01T03:48:21.056Z,14.80
2022-12-01T03:50:56.286Z,15.10
2022-12-01T03:53:27.938Z,15.80
2022-12-01T03:56:04.039Z,12.70
2022-12-01T03:58:39.284Z,15.00
2022-12-01T04:01:22.916Z,14.00
2022-12-01T04:03:53.966Z,13.90
2022-12-01T04:06:31.356Z,10.80
2022-12-01T04:09:00.522Z,15.50
2022-12-01T04:11:48.028Z,15.00
2022-12-01T04:14:17.006Z,15.40
2022-12-01T04:16:45.451Z,16.40
2022-12-01T04:19:14.532Z,17.30
2022-12-01T04:21:43.200Z,15.70
2022-12-01T04:24:12.706Z,15.20
2022-12-01T04:26:43.108Z,15.60
2022-12-01T04:29:11.996Z,13.60
2022-12-01T04:31:40.948Z,14.00
2022-12-01T04:34:12.557Z,16.70
2022-12-01T04:36:41.204Z,14.80
2022-12-01T04:39:15.060Z,15.10
2022-12-01T04:44:14.103Z,13.00
2022-12-01T04:46:43.798Z,13.90
2022-12-01T04:49:13.000Z,13.30
2022-12-01T04:51:42.088Z,12.10
2022-12-01T04:54:10.855Z,12.90
2022-12-01T04:56:39.696Z,11.60
2022-12-01T04:59:08.394Z,13.70
2022-12-01T05:01:36.794Z,15.50
2022-12-01T05:04:05.340Z,16.40
2022-12-01T05:06:33.648Z,14.90
2022-12-01T05:09:02.454Z,15.80
2022-12-01T05:11:32.547Z,14.70
2022-12-01T05:14:01.399Z,11.70
2022-12-01T05:16:31.787Z,12.90
2022-12-01T05:19:21.118Z,14.50
2022-12-01T05:21:50.762Z,14.50
2022-12-01T05:24:20.713Z,11.50
2022-12-01T05:26:49.195Z,14.90
2022-12-01T05:29:18.572Z,16.10
2022-12-01T05:31:47.741Z,15.10
2022-12-01T05:34:18.074Z,13.50
2022-12-01T05:36:47.127Z,13.50
2022-12-01T05:39:18.380Z,13.20
2022-12-01T05:41:46.853Z,13.80
2022-12-01T05:44:15.107Z,11.70
2022-12-01T05:46:43.569Z,14.30
2022-12-01T05:49:11.865Z,12.10
2022-12-01T05:51:40.196Z,10.30
2022-12-01T05:54:09.275Z,12.00
2022-12-01T05:56:40.867Z,13.80
2022-12-01T05:59:12.197Z,12.40
2022-12-01T06:01:41.738Z,13.80
2022-12-01T06:04:10.095Z,14.00
2022-12-01T06:06:38.355Z,12.00
2022-12-01T06:09:07.873Z,14.00
2022-12-01T06:11:42.161Z,14.30
2022-12-01T06:14:12.681Z,11.30
2022-12-01T06:16:41.435Z,13.90
2022-12-01T06:19:11.829Z,13.90
2022-12-01T06:21:40.192Z,10.90
2022-12-01T06:24:09.705Z,11.80
2022-12-01T06:26:38.264Z,11.80
2022-12-01T06:29:06.613Z,12.50
2022-12-01T06:31:35.010Z,11.80
2022-12-01T06:34:03.295Z,13.00
2022-12-01T06:36:31.853Z,12.10
2022-12-01T06:39:00.538Z,13.10
2022-12-01T06:41:29.052Z,14.70
2022-12-01T06:43:57.470Z,13.10
2022-12-01T06:46:26.031Z,13.80
2022-12-01T06:48:54.430Z,9.00
2022-12-01T06:51:23.691Z,13.70
2022-12-01T06:53:54.420Z,9.80
2022-12-01T06:56:22.935Z,11.40
2022-12-01T06:58:52.978Z,13.00
2022-12-01T07:01:22.030Z,12.40
2022-12-01T07:03:54.701Z,12.00
2022-12-01T07:06:24.212Z,11.80
2022-12-01T07:08:56.900Z,13.40
2022-12-01T07:11:31.790Z,13.10
2022-12-01T07:14:00.969Z,12.40
2022-12-01T07:16:30.891Z,14.10
2022-12-01T07:19:00.481Z,13.60
2022-12-01T07:21:30.373Z,11.00
2022-12-01T07:24:00.074Z,13.00
2022-12-01T07:26:29.041Z,11.70
2022-12-01T07:28:57.765Z,14.30
2022-12-01T07:31:27.043Z,10.00
2022-12-01T07:33:55.435Z,13.10
2022-12-01T07:36:24.253Z,12.10
2022-12-01T07:38:52.823Z,13.70
2022-12-01T07:41:21.077Z,14.50
2022-12-01T07:43:49.983Z,12.90
2022-12-01T07:46:23.248Z,11.80
2022-12-01T07:48:53.173Z,10.20
2022-12-01T07:51:24.653Z,14.50
2022-12-01T07:53:55.338Z,11.90
2022-12-01T07:56:27.589Z,11.30
2022-12-01T07:58:56.545Z,13.50
2022-12-01T08:01:25.790Z,14.00
2022-12-01T08:03:56.295Z,13.30
2022-12-01T08:06:28.675Z,12.50
2022-12-01T08:08:57.022Z,15.40
2022-12-01T08:11:29.733Z,12.20
2022-12-01T08:13:58.376Z,12.50
2022-12-01T08:16:26.764Z,15.40
2022-12-01T08:18:55.548Z,14.80
2022-12-01T08:21:26.843Z,15.20
2022-12-01T08:23:57.942Z,12.40
2022-12-01T08:26:28.934Z,12.00
2022-12-01T08:28:57.909Z,11.60
2022-12-01T08:31:30.722Z,15.40
2022-12-01T08:33:59.730Z,13.10
2022-12-01T08:36:28.058Z,14.50
2022-12-01T08:38:56.776Z,10.50
2022-12-01T08:41:27.363Z,12.00
2022-12-01T08:43:59.114Z,10.60
2022-12-01T08:46:39.723Z,13.90
2022-12-01T08:49:10.041Z,11.60
2022-12-01T08:51:38.766Z,13.70
2022-12-01T08:54:07.345Z,12.60
2022-12-01T08:56:39.537Z,12.50
2022-12-01T08:59:10.361Z,14.70
2022-12-01T09:01:51.958Z,14.40
2022-12-01T09:04:24.387Z,10.40
2022-12-01T09:06:54.504Z,10.90
2022-12-01T09:09:28.897Z,13.50
2022-12-01T09:11:58.209Z,12.90
2022-12-01T09:14:30.456Z,14.20
2022-12-01T09:16:59.095Z,13.00
2022-12-01T09:19:28.442Z,14.00
2022-12-01T09:21:57.692Z,15.50
2022-12-01T09:24:26.670Z,12.10
2022-12-01T09:26:58.469Z,13.10
2022-12-01T09:29:27.070Z,14.60
2022-12-01T09:32:01.850Z,15.10
2022-12-01T09:34:37.428Z,15.00
2022-12-01T09:37:12.478Z,13.30
2022-12-01T09:39:45.550Z,13.60
2022-12-01T09:42:32.236Z,8.60
2022-12-01T09:48:07.918Z,16.50
2022-12-01T09:50:38.949Z,14.70
2022-12-01T09:53:18.755Z,17.20
2022-12-01T09:55:52.384Z,14.50
2022-12-01T09:58:28.830Z,15.10
2022-12-01T10:01:12.675Z,13.80
2022-12-01T10:03:47.893Z,13.60
2022-12-01T10:06:28.204Z,12.60
2022-12-01T10:09:05.477Z,12.70
2022-12-01T10:11:46.096Z,17.70
2022-12-01T10:14:20.527Z,16.20
2022-12-01T10:17:04.427Z,15.90
2022-12-01T10:19:37.267Z,10.80
2022-12-01T10:22:39.791Z,12.70
2022-12-01T10:25:19.146Z,14.70
2022-12-01T10:28:00.402Z,19.30
2022-12-01T10:30:41.498Z,19.00
2022-12-01T10:33:26.940Z,11.90
2022-12-01T10:35:57.656Z,18.00
2022-12-01T10:38:30.348Z,17.70
2022-12-01T10:41:09.643Z,15.50
2022-12-01T10:43:45.991Z,21.80
2022-12-01T10:46:23.075Z,15.70
2022-12-01T10:48:57.142Z,17.00
2022-12-01T10:51:27.400Z,19.40
2022-12-01T10:54:00.852Z,23.40
2022-12-01T10:56:31.083Z,21.10
2022-12-01T10:59:05.271Z,22.90
2022-12-01T11:01:35.181Z,18.40
2022-12-01T11:04:07.962Z,22.90
2022-12-01T11:06:38.386Z,25.50
2022-12-01T11:09:15.768Z,25.10
2022-12-01T11:11:44.966Z,24.90
2022-12-01T11:14:20.378Z,19.80
2022-12-01T11:16:52.982Z,22.90
2022-12-01T11:19:32.296Z,22.90
2022-12-01T11:22:22.070Z,22.50
2022-12-01T11:25:23.714Z,22.30
2022-12-01T11:27:57.296Z,17.00
2022-12-01T11:30:30.236Z,21.20
2022-12-01T11:33:00.173Z,21.60
2022-12-01T11:35:30.463Z,18.60
2022-12-01T11:41:10.192Z,23.10
2022-12-01T11:43:42.610Z,18.50
2022-12-01T11:46:16.345Z,22.00
2022-12-01T11:48:57.734Z,26.40
2022-12-01T11:51:32.318Z,22.40
2022-12-01T11:54:14.351Z,17.40
2022-12-01T11:56:56.144Z,21.50
2022-12-01T11:59:40.888Z,25.10
2022-12-01T12:02:31.314Z,21.60
2022-12-01T12:05:42.544Z,21.60
2022-12-01T12:08:21.563Z,21.70
2022-12-01T12:10:58.922Z,17.80
2022-12-01T12:13:51.218Z,16.40
2022-12-01T12:16:28.846Z,22.40
2022-12-01T12:19:17.062Z,20.80
2022-12-01T12:22:08.670Z,19.50
2022-12-01T12:24:49.430Z,22.00
2022-12-01T12:27:30.264Z,17.20
2022-12-01T12:30:15.707Z,20.40
2022-12-01T12:33:25.746Z,18.80
2022-12-01T12:36:01.678Z,19.50
2022-12-01T12:38:47.255Z,21.50
2022-12-01T12:41:29.021Z,19.60
2022-12-01T12:44:08.429Z,12.80
2022-12-01T12:46:43.080Z,16.50
2022-12-01T12:49:21.754Z,16.60
2022-12-01T12:51:54.224Z,17.20
2022-12-01T12:54:27.303Z,14.50
2022-12-01T12:57:18.720Z,14.00
2022-12-01T12:59:52.087Z,14.00
2022-12-01T13:02:29.032Z,13.30
2022-12-01T13:05:01.204Z,11.50
2022-12-01T13:07:37.297Z,12.10
2022-12-01T13:10:11.918Z,10.50
2022-12-01T13:12:52.048Z,11.90
2022-12-01T13:15:21.623Z,10.50
2022-12-01T13:17:52.772Z,11.80
2022-12-01T13:20:27.089Z,9.20
2022-12-01T13:22:57.168Z,6.50
2022-12-01T13:25:32.600Z,4.30
2022-12-01T13:28:22.332Z,7.40
2022-12-01T13:31:14.471Z,8.20
2022-12-01T13:33:49.652Z,9.20
2022-12-01T13:36:45.850Z,8.30
2022-12-01T13:39:38.735Z,5.70
2022-12-01T13:42:10.363Z,6.50
2022-12-01T13:44:43.218Z,5.30
2022-12-01T13:47:34.352Z,7.20
2022-12-01T13:50:35.250Z,3.40
2022-12-01T13:53:12.898Z,8.10
2022-12-01T13:56:11.657Z,8.50
2022-12-01T13:59:15.139Z,6.80
2022-12-01T14:01:49.289Z,6.80
2022-12-01T14:04:30.131Z,9.60
2022-12-01T14:07:20.710Z,7.10
2022-12-01T14:09:54.803Z,6.90
2022-12-01T14:15:02.045Z,7.90
2022-12-01T14:17:34.898Z,6.60
2022-12-01T14:20:19.977Z,8.50
2022-12-01T14:23:14.386Z,3.60
2022-12-01T14:25:46.325Z,8.50
2022-12-01T14:28:40.659Z,9.20
2022-12-01T14:32:22.317Z,9.10
2022-12-01T14:35:08.924Z,9.40
2022-12-01T14:37:50.978Z,7.20
2022-12-01T14:40:35.479Z,10.10
2022-12-01T14:43:32.509Z,8.50
2022-12-01T14:46:21.306Z,9.60
2022-12-01T14:48:50.452Z,8.60
2022-12-01T14:51:26.126Z,8.70
2022-12-01T14:53:56.326Z,6.10
2022-12-01T14:56:33.098Z,8.40
2022-12-01T14:59:18.723Z,10.60
2022-12-01T15:01:49.865Z,6.60
2022-12-01T15:04:19.787Z,9.30
2022-12-01T15:06:56.717Z,10.70
2022-12-01T15:09:35.191Z,8.20
2022-12-01T15:12:06.753Z,8.80
2022-12-01T15:14:40.823Z,7.80
2022-12-01T15:17:30.122Z,10.10
2022-12-01T15:20:01.655Z,10.10
2022-12-01T15:22:31.638Z,9.50
2022-12-01T15:25:08.046Z,5.50
2022-12-01T15:27:36.877Z,5.90
2022-12-01T15:30:10.021Z,9.40
2022-12-01T15:32:39.017Z,5.60
2022-12-01T15:35:11.843Z,9.90
2022-12-01T15:37:42.769Z,9.70
2022-12-01T15:43:14.812Z,10.40
2022-12-01T15:45:48.624Z,8.30
2022-12-01T15:48:24.689Z,9.20
2022-12-01T15:51:15.780Z,10.00
2022-12-01T15:53:49.630Z,9.50
2022-12-01T15:56:26.031Z,12.30
2022-12-01T15:58:59.363Z,12.20
2022-12-01T16:13:43.480Z,15.70
2022-12-01T16:16:38.488Z,14.50
2022-12-01T16:19:39.176Z,14.50
2022-12-01T16:22:18.587Z,15.60
2022-12-01T16:24:53.562Z,18.10
2022-12-01T16:27:26.791Z,16.00
2022-12-01T16:30:00.659Z,14.90
2022-12-01T16:35:04.437Z,13.20
2022-12-01T16:37:36.339Z,12.70
2022-12-01T16:40:14.158Z,16.70
2022-12-01T16:42:46.083Z,15.30
2022-12-01T16:45:19.371Z,16.60
2022-12-01T16:47:51.809Z,16.50
2022-12-01T16:50:25.253Z,12.30
2022-12-01T16:52:57.447Z,9.10
2022-12-01T16:55:38.724Z,19.40
2022-12-01T16:58:10.847Z,15.50
2022-12-01T17:00:43.074Z,16.80
2022-12-01T17:03:17.061Z,10.90
2022-12-01T17:05:49.240Z,18.80
2022-12-01T17:08:21.722Z,15.60
2022-12-01T17:10:53.987Z,17.50
2022-12-01T17:13:25.952Z,17.40
2022-12-01T17:15:58.057Z,9.00
2022-12-01T17:18:30.583Z,15.20
2022-12-01T17:21:03.375Z,14.70
2022-12-01T17:23:37.903Z,10.30
2022-12-01T17:26:12.858Z,9.90
2022-12-01T17:28:44.544Z,13.10
2022-12-01T17:31:17.301Z,15.60
2022-12-01T17:33:49.519Z,17.30
2022-12-01T17:36:21.499Z,19.00
2022-12-01T17:38:53.062Z,11.10
2022-12-01T17:41:25.609Z,15.30
2022-12-01T17:43:58.506Z,18.70
2022-12-01T17:46:30.738Z,17.50
2022-12-01T17:49:08.589Z,15.00
2022-12-01T17:51:40.661Z,17.10
2022-12-01T17:54:12.427Z,17.90
2022-12-01T17:56:46.982Z,16.80
2022-12-01T17:59:21.862Z,16.10
2022-12-01T18:01:53.819Z,20.50
2022-12-01T18:04:25.683Z,16.70
2022-12-01T18:06:57.654Z,12.10
2022-12-01T18:09:29.330Z,20.30
2022-12-01T18:12:01.888Z,17.90
2022-12-01T18:14:34.681Z,17.70
2022-12-01T18:17:06.659Z,17.20
2022-12-01T18:19:38.345Z,19.10
2022-12-01T18:22:10.368Z,17.60
2022-12-01T18:24:42.488Z,19.30
2022-12-01T18:27:14.326Z,15.60
2022-12-01T18:29:46.154Z,17.50
2022-12-01T18:32:18.474Z,17.00
2022-12-01T18:34:50.574Z,17.70
2022-12-01T18:37:22.822Z,15.50
2022-12-01T18:39:58.043Z,13.70
2022-12-01T18:42:30.018Z,11.60
2022-12-01T18:45:01.940Z,19.50
2022-12-01T18:47:35.249Z,14.70
2022-12-01T18:50:08.810Z,15.90
2022-12-01T18:52:40.565Z,17.70
2022-12-01T18:55:27.705Z,16.20
2022-12-01T18:58:00.640Z,9.40
2022-12-01T19:00:35.261Z,15.10
2022-12-01T19:03:08.216Z,18.50
2022-12-01T19:05:41.349Z,20.50
2022-12-01T19:08:13.172Z,19.80
2022-12-01T19:10:45.108Z,16.40
2022-12-01T19:13:16.791Z,16.20
2022-12-01T19:15:48.493Z,15.30
2022-12-01T19:18:20.284Z,19.70
2022-12-01T19:20:52.212Z,19.80
2022-12-01T19:23:23.939Z,16.30
2022-12-01T19:25:55.626Z,21.40
2022-12-01T19:28:28.467Z,18.40
2022-12-01T19:31:00.226Z,23.90
2022-12-01T19:33:31.951Z,12.40
2022-12-01T19:36:10.778Z,20.80
2022-12-01T19:38:44.508Z,15.80
2022-12-01T19:41:20.922Z,17.00
2022-12-01T19:43:54.315Z,16.60
2022-12-01T19:46:29.002Z,18.30
2022-12-01T19:49:02.273Z,18.90
2022-12-01T19:51:35.608Z,15.20
2022-12-01T19:54:09.149Z,15.20
2022-12-01T19:56:40.841Z,13.60
2022-12-01T19:59:14.645Z,16.30
2022-12-01T20:04:16.974Z,18.10
2022-12-01T20:06:48.637Z,19.40
2022-12-01T20:09:20.548Z,18.00
2022-12-01T20:11:52.231Z,24.20
2022-12-01T20:14:24.298Z,17.60
2022-12-01T20:16:58.148Z,11.70
2022-12-01T20:19:30.055Z,19.90
2022-12-01T20:22:02.303Z,11.70
2022-12-01T20:24:34.052Z,21.80
2022-12-01T20:27:05.735Z,15.80
2022-12-01T20:29:37.774Z,18.80
2022-12-01T20:32:09.881Z,17.70
2022-12-01T20:34:42.545Z,21.30
2022-12-01T20:37:14.107Z,19.20
2022-12-01T20:39:46.388Z,19.70
2022-12-01T20:42:19.361Z,15.70
2022-12-01T20:44:51.480Z,18.40
2022-12-01T20:47:23.287Z,18.70
2022-12-01T20:49:58.550Z,20.50
2022-12-01T20:52:30.726Z,18.80
2022-12-01T20:55:02.636Z,17.60
2022-12-01T20:57:34.492Z,14.30
2022-12-01T21:00:08.075Z,20.00
2022-12-01T21:02:39.795Z,14.10
2022-12-01T21:05:12.243Z,20.80
2022-12-01T21:07:44.085Z,19.70
2022-12-01T21:10:19.956Z,18.80
2022-12-01T21:13:12.491Z,16.20
2022-12-01T21:15:51.100Z,19.40
2022-12-01T21:18:26.818Z,21.90
2022-12-01T21:21:03.647Z,18.30
2022-12-01T21:23:35.480Z,8.80
2022-12-01T21:26:30.260Z,21.00
2022-12-01T21:31:32.414Z,15.30
2022-12-01T21:34:04.103Z,12.10
2022-12-01T21:36:37.342Z,14.60
2022-12-01T21:39:21.183Z,24.50
2022-12-01T21:41:55.018Z,20.30
2022-12-01T21:44:31.930Z,18.60
2022-12-01T21:47:17.208Z,19.50
2022-12-01T21:49:50.696Z,17.70
2022-12-01T21:52:25.136Z,19.80
2022-12-01T21:54:57.170Z,20.20
2022-12-01T21:57:42.367Z,19.90
2022-12-01T22:00:37.802Z,9.20
2022-12-01T22:06:21.177Z,17.50
2022-12-01T22:08:49.972Z,14.40
2022-12-01T22:11:23.501Z,15.70
2022-12-01T22:14:01.013Z,15.90
2022-12-01T22:16:35.029Z,17.00
2022-12-01T22:19:27.246Z,11.50
2022-12-01T22:22:03.582Z,16.90
2022-12-01T22:24:41.831Z,18.00
2022-12-01T22:27:25.957Z,15.30
2022-12-01T22:30:01.776Z,17.30
2022-12-01T22:32:39.408Z,12.60
2022-12-01T22:35:32.552Z,16.30
2022-12-01T22:38:23.307Z,18.30
2022-12-01T22:40:58.464Z,13.40
2022-12-01T22:43:38.001Z,16.20
2022-12-01T22:46:32.548Z,9.60
2022-12-01T22:49:19.696Z,19.60
2022-12-01T22:51:52.683Z,15.00
2022-12-01T22:54:39.743Z,17.10
2022-12-01T22:57:28.926Z,16.40
2022-12-01T23:00:00.727Z,18.30
2022-12-01T23:02:35.827Z,15.60
2022-12-01T23:05:18.471Z,18.70
2022-12-01T23:07:50.510Z,16.90
2022-12-01T23:10:24.691Z,15.20
2022-12-01T23:15:34.179Z,15.30
2022-12-01T23:18:15.349Z,13.30
2022-12-01T23:20:49.296Z,12.90
2022-12-01T23:23:26.038Z,14.50
2022-12-01T23:25:57.796Z,14.90
2022-12-01T23:28:29.867Z,13.90
2022-12-01T23:31:02.029Z,15.60
2022-12-01T23:33:35.370Z,17.10
2022-12-01T23:36:15.436Z,17.70
2022-12-01T23:38:48.871Z,14.60
2022-12-01T23:41:25.860Z,17.00
2022-12-01T23:43:58.870Z,13.20
2022-12-01T23:46:31.055Z,16.70
2022-12-01T23:49:07.516Z,16.40
2022-12-01T23:51:41.326Z,16.10
2022-12-01T23:54:16.656Z,10.80
2022-12-01T23:56:51.438Z,13.70
2022-12-01T23:59:23.654Z,14.10
